sensor_id;sensor_type;location;lat;lon;timestamp;temperature;humidity
11497;DHT22;5805;51.542;7.230;2023-04-21T00:01:02;10.00;99.90
11497;DHT22;5805;51.542;7.230;2023-04-21T00:03:27;10.10;99.90
11497;DHT22;5805;51.542;7.230;2023-04-21T00:05:55;11.20;99.90
11497;DHT22;5805;51.542;7.230;2023-04-21T00:08:21;10.80;99.90
11497;DHT22;5805;51.542;7.230;2023-04-21T00:10:47;11.50;99.90
11497;DHT22;5805;51.542;7.230;2023-04-21T00:13:13;10.30;99.90
11497;DHT22;5805;51.542;7.230;2023-04-21T00:15:38;11.30;99.90
11497;DHT22;5805;51.542;7.230;2023-04-21T00:18:04;11.10;99.90
11497;DHT22;5805;51.542;7.230;2023-04-21T00:20:30;10.60;99.90
11497;DHT22;5805;51.542;7.230;2023-04-21T00:22:58;10.90;99.90
11497;DHT22;5805;51.542;7.230;2023-04-21T00:25:24;10.60;99.90
11497;DHT22;5805;51.542;7.230;2023-04-21T00:27:49;10.80;99.90
11497;DHT22;5805;51.542;7.230;2023-04-21T00:30:15;10.60;99.90
11497;DHT22;5805;51.542;7.230;2023-04-21T00:32:41;11.90;99.90
11497;DHT22;5805;51.542;7.230;2023-04-21T00:35:08;11.30;99.90
11497;DHT22;5805;51.542;7.230;2023-04-21T00:37:34;10.50;99.90
11497;DHT22;5805;51.542;7.230;2023-04-21T00:40:02;10.40;99.90
11497;DHT22;5805;51.542;7.230;2023-04-21T00:42:28;10.40;99.90
11497;DHT22;5805;51.542;7.230;2023-04-21T00:44:53;10.40;99.90
11497;DHT22;5805;51.542;7.230;2023-04-21T00:47:19;10.40;99.90
11497;DHT22;5805;51.542;7.230;2023-04-21T00:49:45;11.30;99.90
11497;DHT22;5805;51.542;7.230;2023-04-21T00:52:11;11.70;99.90
11497;DHT22;5805;51.542;7.230;2023-04-21T00:54:38;10.60;99.90
11497;DHT22;5805;51.542;7.230;2023-04-21T00:57:05;12.80;99.90
11497;DHT22;5805;51.542;7.230;2023-04-21T00:59:31;10.70;99.90
11497;DHT22;5805;51.542;7.230;2023-04-21T01:01:57;10.70;99.90
11497;DHT22;5805;51.542;7.230;2023-04-21T01:04:23;11.40;99.90
11497;DHT22;5805;51.542;7.230;2023-04-21T01:06:48;10.70;99.90
11497;DHT22;5805;51.542;7.230;2023-04-21T01:09:14;12.30;99.90
11497;DHT22;5805;51.542;7.230;2023-04-21T01:11:40;10.80;99.90
11497;DHT22;5805;51.542;7.230;2023-04-21T01:14:07;10.90;99.90
11497;DHT22;5805;51.542;7.230;2023-04-21T01:16:33;11.50;99.90
11497;DHT22;5805;51.542;7.230;2023-04-21T01:18:59;10.90;99.90
11497;DHT22;5805;51.542;7.230;2023-04-21T01:21:25;11.50;99.90
11497;DHT22;5805;51.542;7.230;2023-04-21T01:23:52;10.90;99.90
11497;DHT22;5805;51.542;7.230;2023-04-21T01:26:18;12.00;99.90
11497;DHT22;5805;51.542;7.230;2023-04-21T01:28:44;11.00;99.90
11497;DHT22;5805;51.542;7.230;2023-04-21T01:31:10;11.00;99.90
11497;DHT22;5805;51.542;7.230;2023-04-21T01:33:36;11.00;99.90
11497;DHT22;5805;51.542;7.230;2023-04-21T01:36:02;11.00;99.90
11497;DHT22;5805;51.542;7.230;2023-04-21T01:38:28;11.00;99.90
11497;DHT22;5805;51.542;7.230;2023-04-21T01:40:55;11.10;99.90
11497;DHT22;5805;51.542;7.230;2023-04-21T01:43:23;12.40;99.90
11497;DHT22;5805;51.542;7.230;2023-04-21T01:45:48;10.90;99.90
11497;DHT22;5805;51.542;7.230;2023-04-21T01:48:14;10.80;99.90
11497;DHT22;5805;51.542;7.230;2023-04-21T01:50:40;11.90;99.90
11497;DHT22;5805;51.542;7.230;2023-04-21T01:53:06;10.40;99.90
11497;DHT22;5805;51.542;7.230;2023-04-21T01:55:32;10.90;99.90
11497;DHT22;5805;51.542;7.230;2023-04-21T01:57:59;10.10;99.90
11497;DHT22;5805;51.542;7.230;2023-04-21T02:00:24;10.00;99.90
11497;DHT22;5805;51.542;7.230;2023-04-21T02:02:50;9.90;99.90
11497;DHT22;5805;51.542;7.230;2023-04-21T02:05:16;10.40;99.90
11497;DHT22;5805;51.542;7.230;2023-04-21T02:07:42;9.90;99.90
11497;DHT22;5805;51.542;7.230;2023-04-21T02:10:08;11.20;99.90
11497;DHT22;5805;51.542;7.230;2023-04-21T02:12:34;9.80;99.90
11497;DHT22;5805;51.542;7.230;2023-04-21T02:15:01;10.00;99.90
11497;DHT22;5805;51.542;7.230;2023-04-21T02:17:27;10.20;99.90
11497;DHT22;5805;51.542;7.230;2023-04-21T02:19:52;10.30;99.90
11497;DHT22;5805;51.542;7.230;2023-04-21T02:22:18;10.30;99.90
11497;DHT22;5805;51.542;7.230;2023-04-21T02:24:44;10.30;99.90
11497;DHT22;5805;51.542;7.230;2023-04-21T02:27:09;10.40;99.90
11497;DHT22;5805;51.542;7.230;2023-04-21T02:29:35;11.70;99.90
11497;DHT22;5805;51.542;7.230;2023-04-21T02:32:02;11.90;99.90
11497;DHT22;5805;51.542;7.230;2023-04-21T02:34:28;11.50;99.90
11497;DHT22;5805;51.542;7.230;2023-04-21T02:36:53;10.30;99.90
11497;DHT22;5805;51.542;7.230;2023-04-21T02:39:19;11.60;99.90
11497;DHT22;5805;51.542;7.230;2023-04-21T02:41:45;10.90;99.90
11497;DHT22;5805;51.542;7.230;2023-04-21T02:44:10;13.10;99.90
11497;DHT22;5805;51.542;7.230;2023-04-21T02:46:39;10.40;99.90
11497;DHT22;5805;51.542;7.230;2023-04-21T02:49:06;10.40;99.90
11497;DHT22;5805;51.542;7.230;2023-04-21T02:51:31;10.50;99.90
11497;DHT22;5805;51.542;7.230;2023-04-21T02:53:57;10.60;99.90
11497;DHT22;5805;51.542;7.230;2023-04-21T02:56:23;10.50;99.90
11497;DHT22;5805;51.542;7.230;2023-04-21T02:58:48;11.10;99.90
11497;DHT22;5805;51.542;7.230;2023-04-21T03:01:14;10.50;99.90
11497;DHT22;5805;51.542;7.230;2023-04-21T03:03:40;10.40;99.90
11497;DHT22;5805;51.542;7.230;2023-04-21T03:06:07;12.30;99.90
11497;DHT22;5805;51.542;7.230;2023-04-21T03:08:33;10.10;99.90
11497;DHT22;5805;51.542;7.230;2023-04-21T03:10:59;10.50;99.90
11497;DHT22;5805;51.542;7.230;2023-04-21T03:13:24;11.60;99.90
11497;DHT22;5805;51.542;7.230;2023-04-21T03:15:50;10.40;99.90
11497;DHT22;5805;51.542;7.230;2023-04-21T03:18:16;10.40;99.90
11497;DHT22;5805;51.542;7.230;2023-04-21T03:20:42;10.40;99.90
11497;DHT22;5805;51.542;7.230;2023-04-21T03:23:09;10.40;99.90
11497;DHT22;5805;51.542;7.230;2023-04-21T03:25:37;10.60;99.90
11497;DHT22;5805;51.542;7.230;2023-04-21T03:28:03;10.60;99.90
11497;DHT22;5805;51.542;7.230;2023-04-21T03:30:28;10.60;99.90
11497;DHT22;5805;51.542;7.230;2023-04-21T03:32:54;12.50;99.90
11497;DHT22;5805;51.542;7.230;2023-04-21T03:35:20;10.70;99.90
11497;DHT22;5805;51.542;7.230;2023-04-21T03:37:46;10.70;99.90
11497;DHT22;5805;51.542;7.230;2023-04-21T03:40:13;10.70;99.90
11497;DHT22;5805;51.542;7.230;2023-04-21T03:42:39;11.60;99.90
11497;DHT22;5805;51.542;7.230;2023-04-21T03:45:06;10.70;99.90
11497;DHT22;5805;51.542;7.230;2023-04-21T03:47:32;10.70;99.90
11497;DHT22;5805;51.542;7.230;2023-04-21T03:49:58;10.70;99.90
11497;DHT22;5805;51.542;7.230;2023-04-21T03:52:24;11.00;99.90
11497;DHT22;5805;51.542;7.230;2023-04-21T03:54:50;10.80;99.90
11497;DHT22;5805;51.542;7.230;2023-04-21T03:57:17;10.80;99.90
11497;DHT22;5805;51.542;7.230;2023-04-21T03:59:43;10.90;99.90
11497;DHT22;5805;51.542;7.230;2023-04-21T04:02:08;10.80;99.90
11497;DHT22;5805;51.542;7.230;2023-04-21T04:04:34;10.80;99.90
11497;DHT22;5805;51.542;7.230;2023-04-21T04:07:00;10.80;99.90
11497;DHT22;5805;51.542;7.230;2023-04-21T04:09:26;12.70;99.90
11497;DHT22;5805;51.542;7.230;2023-04-21T04:11:51;12.40;99.90
11497;DHT22;5805;51.542;7.230;2023-04-21T04:14:18;12.10;99.90
11497;DHT22;5805;51.542;7.230;2023-04-21T04:16:44;12.10;99.90
11497;DHT22;5805;51.542;7.230;2023-04-21T04:19:10;11.60;99.90
11497;DHT22;5805;51.542;7.230;2023-04-21T04:21:35;12.10;99.90
11497;DHT22;5805;51.542;7.230;2023-04-21T04:24:01;11.90;99.90
11497;DHT22;5805;51.542;7.230;2023-04-21T04:26:27;11.60;99.90
11497;DHT22;5805;51.542;7.230;2023-04-21T04:28:53;10.80;99.90
11497;DHT22;5805;51.542;7.230;2023-04-21T04:31:20;10.90;99.90
11497;DHT22;5805;51.542;7.230;2023-04-21T04:33:45;10.90;99.90
11497;DHT22;5805;51.542;7.230;2023-04-21T04:36:11;10.90;99.90
11497;DHT22;5805;51.542;7.230;2023-04-21T04:38:37;11.40;99.90
11497;DHT22;5805;51.542;7.230;2023-04-21T04:41:02;10.90;99.90
11497;DHT22;5805;51.542;7.230;2023-04-21T04:43:28;11.00;99.90
11497;DHT22;5805;51.542;7.230;2023-04-21T04:45:54;11.00;99.90
11497;DHT22;5805;51.542;7.230;2023-04-21T04:48:21;11.30;99.90
11497;DHT22;5805;51.542;7.230;2023-04-21T04:50:47;11.00;99.90
11497;DHT22;5805;51.542;7.230;2023-04-21T04:53:12;12.90;99.90
11497;DHT22;5805;51.542;7.230;2023-04-21T04:55:38;12.20;99.90
11497;DHT22;5805;51.542;7.230;2023-04-21T04:58:04;11.00;99.90
11497;DHT22;5805;51.542;7.230;2023-04-21T05:00:29;12.20;99.90
11497;DHT22;5805;51.542;7.230;2023-04-21T05:02:55;11.00;99.90
11497;DHT22;5805;51.542;7.230;2023-04-21T05:05:22;11.80;99.90
11497;DHT22;5805;51.542;7.230;2023-04-21T05:07:48;11.10;99.90
11497;DHT22;5805;51.542;7.230;2023-04-21T05:10:13;11.10;99.90
11497;DHT22;5805;51.542;7.230;2023-04-21T05:12:39;11.10;99.90
11497;DHT22;5805;51.542;7.230;2023-04-21T05:15:06;11.40;99.90
11497;DHT22;5805;51.542;7.230;2023-04-21T05:17:32;11.10;99.90
11497;DHT22;5805;51.542;7.230;2023-04-21T05:19:58;12.50;99.90
11497;DHT22;5805;51.542;7.230;2023-04-21T05:22:25;12.40;99.90
11497;DHT22;5805;51.542;7.230;2023-04-21T05:24:50;11.10;99.90
11497;DHT22;5805;51.542;7.230;2023-04-21T05:27:16;11.90;99.90
11497;DHT22;5805;51.542;7.230;2023-04-21T05:29:42;11.10;99.90
11497;DHT22;5805;51.542;7.230;2023-04-21T05:32:08;12.50;99.90
11497;DHT22;5805;51.542;7.230;2023-04-21T05:34:33;12.00;99.90
11497;DHT22;5805;51.542;7.230;2023-04-21T05:36:59;11.10;99.90
11497;DHT22;5805;51.542;7.230;2023-04-21T05:39:27;12.90;99.90
11497;DHT22;5805;51.542;7.230;2023-04-21T05:41:53;11.30;99.90
11497;DHT22;5805;51.542;7.230;2023-04-21T05:44:19;11.90;99.90
11497;DHT22;5805;51.542;7.230;2023-04-21T05:46:44;13.10;99.90
11497;DHT22;5805;51.542;7.230;2023-04-21T05:49:10;11.30;99.90
11497;DHT22;5805;51.542;7.230;2023-04-21T05:51:36;12.70;99.90
11497;DHT22;5805;51.542;7.230;2023-04-21T05:54:02;11.30;99.90
11497;DHT22;5805;51.542;7.230;2023-04-21T05:56:29;11.30;99.90
11497;DHT22;5805;51.542;7.230;2023-04-21T05:58:54;11.40;99.90
11497;DHT22;5805;51.542;7.230;2023-04-21T06:01:20;11.20;99.90
11497;DHT22;5805;51.542;7.230;2023-04-21T06:03:46;11.20;99.90
11497;DHT22;5805;51.542;7.230;2023-04-21T06:06:11;12.40;99.90
11497;DHT22;5805;51.542;7.230;2023-04-21T06:08:37;12.30;99.90
11497;DHT22;5805;51.542;7.230;2023-04-21T06:11:03;11.30;99.90
11497;DHT22;5805;51.542;7.230;2023-04-21T06:13:30;11.20;99.90
11497;DHT22;5805;51.542;7.230;2023-04-21T06:15:56;11.30;99.90
11497;DHT22;5805;51.542;7.230;2023-04-21T06:18:21;11.30;99.90
11497;DHT22;5805;51.542;7.230;2023-04-21T06:20:51;11.30;99.90
11497;DHT22;5805;51.542;7.230;2023-04-21T06:23:17;11.80;99.90
11497;DHT22;5805;51.542;7.230;2023-04-21T06:25:43;11.90;99.90
11497;DHT22;5805;51.542;7.230;2023-04-21T06:28:08;12.60;99.90
11497;DHT22;5805;51.542;7.230;2023-04-21T06:30:36;11.90;99.90
11497;DHT22;5805;51.542;7.230;2023-04-21T06:33:01;11.70;99.90
11497;DHT22;5805;51.542;7.230;2023-04-21T06:35:27;13.70;99.90
11497;DHT22;5805;51.542;7.230;2023-04-21T06:37:53;11.70;99.90
11497;DHT22;5805;51.542;7.230;2023-04-21T06:40:18;12.00;99.90
11497;DHT22;5805;51.542;7.230;2023-04-21T06:42:44;12.10;99.90
11497;DHT22;5805;51.542;7.230;2023-04-21T06:45:10;11.90;99.90
11497;DHT22;5805;51.542;7.230;2023-04-21T06:47:37;12.30;99.90
11497;DHT22;5805;51.542;7.230;2023-04-21T06:50:04;12.30;99.90
11497;DHT22;5805;51.542;7.230;2023-04-21T06:52:30;12.00;99.90
11497;DHT22;5805;51.542;7.230;2023-04-21T06:54:55;12.20;99.90
11497;DHT22;5805;51.542;7.230;2023-04-21T06:57:21;12.40;99.90
11497;DHT22;5805;51.542;7.230;2023-04-21T06:59:47;13.60;99.90
11497;DHT22;5805;51.542;7.230;2023-04-21T07:02:12;13.60;99.90
11497;DHT22;5805;51.542;7.230;2023-04-21T07:04:39;12.80;99.90
11497;DHT22;5805;51.542;7.230;2023-04-21T07:07:05;13.10;99.90
11497;DHT22;5805;51.542;7.230;2023-04-21T07:09:31;13.80;99.90
11497;DHT22;5805;51.542;7.230;2023-04-21T07:11:56;14.70;99.90
11497;DHT22;5805;51.542;7.230;2023-04-21T07:14:22;13.00;99.90
11497;DHT22;5805;51.542;7.230;2023-04-21T07:16:48;13.70;99.90
11497;DHT22;5805;51.542;7.230;2023-04-21T07:19:13;14.00;99.90
11497;DHT22;5805;51.542;7.230;2023-04-21T07:21:40;13.50;99.90
11497;DHT22;5805;51.542;7.230;2023-04-21T07:24:06;13.50;99.90
11497;DHT22;5805;51.542;7.230;2023-04-21T07:26:32;13.70;99.90
11497;DHT22;5805;51.542;7.230;2023-04-21T07:28:58;15.50;99.90
11497;DHT22;5805;51.542;7.230;2023-04-21T07:31:24;13.90;99.90
11497;DHT22;5805;51.542;7.230;2023-04-21T07:33:49;14.50;99.90
11497;DHT22;5805;51.542;7.230;2023-04-21T07:36:15;14.40;99.90
11497;DHT22;5805;51.542;7.230;2023-04-21T07:38:42;13.80;99.90
11497;DHT22;5805;51.542;7.230;2023-04-21T07:41:08;14.90;99.90
11497;DHT22;5805;51.542;7.230;2023-04-21T07:43:34;13.60;99.90
11497;DHT22;5805;51.542;7.230;2023-04-21T07:46:00;13.30;99.90
11497;DHT22;5805;51.542;7.230;2023-04-21T07:48:25;13.40;99.90
11497;DHT22;5805;51.542;7.230;2023-04-21T07:50:51;14.50;99.90
11497;DHT22;5805;51.542;7.230;2023-04-21T07:53:17;13.70;99.90
11497;DHT22;5805;51.542;7.230;2023-04-21T07:55:44;13.80;99.90
11497;DHT22;5805;51.542;7.230;2023-04-21T07:58:09;14.10;99.90
11497;DHT22;5805;51.542;7.230;2023-04-21T08:00:36;14.10;99.90
11497;DHT22;5805;51.542;7.230;2023-04-21T08:03:02;14.40;99.90
11497;DHT22;5805;51.542;7.230;2023-04-21T08:05:27;14.40;99.90
11497;DHT22;5805;51.542;7.230;2023-04-21T08:07:53;14.50;99.90
11497;DHT22;5805;51.542;7.230;2023-04-21T08:10:19;14.60;99.90
11497;DHT22;5805;51.542;7.230;2023-04-21T08:12:46;14.40;99.90
11497;DHT22;5805;51.542;7.230;2023-04-21T08:15:12;14.90;99.90
11497;DHT22;5805;51.542;7.230;2023-04-21T08:17:37;14.40;99.90
11497;DHT22;5805;51.542;7.230;2023-04-21T08:20:04;14.30;99.90
11497;DHT22;5805;51.542;7.230;2023-04-21T08:22:30;14.40;99.90
11497;DHT22;5805;51.542;7.230;2023-04-21T08:24:56;14.20;99.90
11497;DHT22;5805;51.542;7.230;2023-04-21T08:27:22;14.20;99.90
11497;DHT22;5805;51.542;7.230;2023-04-21T08:29:49;14.30;99.90
11497;DHT22;5805;51.542;7.230;2023-04-21T08:32:15;15.00;99.90
11497;DHT22;5805;51.542;7.230;2023-04-21T08:34:41;14.60;99.90
11497;DHT22;5805;51.542;7.230;2023-04-21T08:37:06;14.70;99.90
11497;DHT22;5805;51.542;7.230;2023-04-21T08:39:32;14.70;99.90
11497;DHT22;5805;51.542;7.230;2023-04-21T08:41:58;14.50;99.90
11497;DHT22;5805;51.542;7.230;2023-04-21T08:44:25;14.50;99.90
11497;DHT22;5805;51.542;7.230;2023-04-21T08:46:55;14.30;99.90
11497;DHT22;5805;51.542;7.230;2023-04-21T08:49:21;14.30;99.90
11497;DHT22;5805;51.542;7.230;2023-04-21T08:51:48;14.40;99.90
11497;DHT22;5805;51.542;7.230;2023-04-21T08:54:13;14.30;99.90
11497;DHT22;5805;51.542;7.230;2023-04-21T08:56:39;14.20;99.90
11497;DHT22;5805;51.542;7.230;2023-04-21T08:59:05;14.20;99.90
11497;DHT22;5805;51.542;7.230;2023-04-21T09:01:30;14.40;99.90
11497;DHT22;5805;51.542;7.230;2023-04-21T09:04:14;14.40;99.90
11497;DHT22;5805;51.542;7.230;2023-04-21T09:06:40;14.50;99.90
11497;DHT22;5805;51.542;7.230;2023-04-21T09:09:06;14.50;99.90
11497;DHT22;5805;51.542;7.230;2023-04-21T09:11:32;14.60;99.90
11497;DHT22;5805;51.542;7.230;2023-04-21T09:13:58;15.40;99.90
11497;DHT22;5805;51.542;7.230;2023-04-21T09:16:24;14.70;99.90
11497;DHT22;5805;51.542;7.230;2023-04-21T09:18:53;16.50;99.90
11497;DHT22;5805;51.542;7.230;2023-04-21T09:21:26;15.10;99.90
11497;DHT22;5805;51.542;7.230;2023-04-21T09:23:52;14.80;99.90
11497;DHT22;5805;51.542;7.230;2023-04-21T09:26:20;14.90;99.90
11497;DHT22;5805;51.542;7.230;2023-04-21T09:28:47;14.90;99.90
11497;DHT22;5805;51.542;7.230;2023-04-21T09:31:14;14.90;99.90
11497;DHT22;5805;51.542;7.230;2023-04-21T09:33:44;15.00;99.90
11497;DHT22;5805;51.542;7.230;2023-04-21T09:36:17;14.90;99.90
11497;DHT22;5805;51.542;7.230;2023-04-21T09:38:48;15.10;99.90
11497;DHT22;5805;51.542;7.230;2023-04-21T09:41:16;14.80;99.90
11497;DHT22;5805;51.542;7.230;2023-04-21T09:43:41;14.80;99.90
11497;DHT22;5805;51.542;7.230;2023-04-21T09:46:08;15.00;99.90
11497;DHT22;5805;51.542;7.230;2023-04-21T09:48:34;15.60;99.90
11497;DHT22;5805;51.542;7.230;2023-04-21T09:51:01;15.00;99.90
11497;DHT22;5805;51.542;7.230;2023-04-21T09:53:27;15.10;99.90
11497;DHT22;5805;51.542;7.230;2023-04-21T09:55:56;15.10;99.90
11497;DHT22;5805;51.542;7.230;2023-04-21T09:58:23;15.30;99.90
11497;DHT22;5805;51.542;7.230;2023-04-21T10:00:51;15.40;99.90
11497;DHT22;5805;51.542;7.230;2023-04-21T10:03:19;15.60;99.90
11497;DHT22;5805;51.542;7.230;2023-04-21T10:05:46;15.80;99.90
11497;DHT22;5805;51.542;7.230;2023-04-21T10:08:12;16.00;99.90
11497;DHT22;5805;51.542;7.230;2023-04-21T10:10:38;16.10;99.90
11497;DHT22;5805;51.542;7.230;2023-04-21T10:13:06;16.40;99.90
11497;DHT22;5805;51.542;7.230;2023-04-21T10:15:33;16.60;99.90
11497;DHT22;5805;51.542;7.230;2023-04-21T10:18:25;16.70;99.90
11497;DHT22;5805;51.542;7.230;2023-04-21T10:20:54;16.80;99.90
11497;DHT22;5805;51.542;7.230;2023-04-21T10:23:27;17.00;99.90
11497;DHT22;5805;51.542;7.230;2023-04-21T10:25:53;17.00;99.90
11497;DHT22;5805;51.542;7.230;2023-04-21T10:28:41;16.80;99.90
11497;DHT22;5805;51.542;7.230;2023-04-21T10:31:21;16.60;99.90
11497;DHT22;5805;51.542;7.230;2023-04-21T10:34:13;16.60;99.90
11497;DHT22;5805;51.542;7.230;2023-04-21T10:36:42;16.90;99.90
11497;DHT22;5805;51.542;7.230;2023-04-21T10:39:23;16.80;99.90
11497;DHT22;5805;51.542;7.230;2023-04-21T10:41:49;16.70;99.90
11497;DHT22;5805;51.542;7.230;2023-04-21T10:44:17;17.00;99.90
11497;DHT22;5805;51.542;7.230;2023-04-21T10:46:45;17.20;99.90
11497;DHT22;5805;51.542;7.230;2023-04-21T10:49:13;17.40;99.90
11497;DHT22;5805;51.542;7.230;2023-04-21T10:52:05;17.50;99.90
11497;DHT22;5805;51.542;7.230;2023-04-21T10:54:37;17.70;99.90
11497;DHT22;5805;51.542;7.230;2023-04-21T10:57:06;17.90;99.90
11497;DHT22;5805;51.542;7.230;2023-04-21T10:59:34;17.90;99.90
11497;DHT22;5805;51.542;7.230;2023-04-21T11:02:00;17.80;99.90
11497;DHT22;5805;51.542;7.230;2023-04-21T11:04:26;17.70;99.90
11497;DHT22;5805;51.542;7.230;2023-04-21T11:07:04;17.40;99.90
11497;DHT22;5805;51.542;7.230;2023-04-21T11:09:30;17.00;99.90
11497;DHT22;5805;51.542;7.230;2023-04-21T11:11:57;17.30;99.90
11497;DHT22;5805;51.542;7.230;2023-04-21T11:14:23;16.90;99.90
11497;DHT22;5805;51.542;7.230;2023-04-21T11:16:50;16.80;99.90
11497;DHT22;5805;51.542;7.230;2023-04-21T11:19:16;16.80;99.90
11497;DHT22;5805;51.542;7.230;2023-04-21T11:21:41;16.90;99.90
11497;DHT22;5805;51.542;7.230;2023-04-21T11:24:08;17.00;99.90
11497;DHT22;5805;51.542;7.230;2023-04-21T11:26:35;16.70;99.90
11497;DHT22;5805;51.542;7.230;2023-04-21T11:29:02;16.60;99.90
11497;DHT22;5805;51.542;7.230;2023-04-21T11:31:28;16.50;99.90
11497;DHT22;5805;51.542;7.230;2023-04-21T11:33:55;16.50;99.90
11497;DHT22;5805;51.542;7.230;2023-04-21T11:36:22;16.50;99.90
11497;DHT22;5805;51.542;7.230;2023-04-21T11:38:48;16.60;99.90
11497;DHT22;5805;51.542;7.230;2023-04-21T11:41:20;16.60;99.90
11497;DHT22;5805;51.542;7.230;2023-04-21T11:43:46;16.60;99.90
11497;DHT22;5805;51.542;7.230;2023-04-21T11:46:15;16.70;99.90
11497;DHT22;5805;51.542;7.230;2023-04-21T11:48:42;16.70;99.90
11497;DHT22;5805;51.542;7.230;2023-04-21T11:51:15;17.70;99.90
11497;DHT22;5805;51.542;7.230;2023-04-21T11:53:41;16.90;99.90
11497;DHT22;5805;51.542;7.230;2023-04-21T11:56:08;17.00;99.90
11497;DHT22;5805;51.542;7.230;2023-04-21T11:58:34;17.10;99.90
11497;DHT22;5805;51.542;7.230;2023-04-21T12:01:06;17.20;99.90
11497;DHT22;5805;51.542;7.230;2023-04-21T12:03:32;17.10;99.90
11497;DHT22;5805;51.542;7.230;2023-04-21T12:05:58;17.00;99.90
11497;DHT22;5805;51.542;7.230;2023-04-21T12:08:28;17.20;99.90
11497;DHT22;5805;51.542;7.230;2023-04-21T12:10:53;17.30;99.90
11497;DHT22;5805;51.542;7.230;2023-04-21T12:13:21;17.50;99.90
11497;DHT22;5805;51.542;7.230;2023-04-21T12:15:48;17.70;99.90
11497;DHT22;5805;51.542;7.230;2023-04-21T12:18:14;17.90;99.90
11497;DHT22;5805;51.542;7.230;2023-04-21T12:20:47;18.00;99.90
11497;DHT22;5805;51.542;7.230;2023-04-21T12:23:13;18.00;99.90
11497;DHT22;5805;51.542;7.230;2023-04-21T12:25:40;18.20;99.90
11497;DHT22;5805;51.542;7.230;2023-04-21T12:28:07;18.40;99.90
11497;DHT22;5805;51.542;7.230;2023-04-21T12:30:33;18.40;99.90
11497;DHT22;5805;51.542;7.230;2023-04-21T12:32:59;18.50;99.90
11497;DHT22;5805;51.542;7.230;2023-04-21T12:35:25;18.70;99.90
11497;DHT22;5805;51.542;7.230;2023-04-21T12:37:51;18.90;99.90
11497;DHT22;5805;51.542;7.230;2023-04-21T12:40:16;19.10;99.90
11497;DHT22;5805;51.542;7.230;2023-04-21T12:42:43;19.40;99.90
11497;DHT22;5805;51.542;7.230;2023-04-21T12:45:10;19.40;99.90
11497;DHT22;5805;51.542;7.230;2023-04-21T12:47:36;19.60;98.80
11497;DHT22;5805;51.542;7.230;2023-04-21T12:50:02;19.60;98.60
11497;DHT22;5805;51.542;7.230;2023-04-21T12:52:28;19.40;98.70
11497;DHT22;5805;51.542;7.230;2023-04-21T12:54:53;19.50;99.90
11497;DHT22;5805;51.542;7.230;2023-04-21T12:57:19;19.30;97.80
11497;DHT22;5805;51.542;7.230;2023-04-21T12:59:47;19.20;98.10
11497;DHT22;5805;51.542;7.230;2023-04-21T13:02:13;19.20;99.90
11497;DHT22;5805;51.542;7.230;2023-04-21T13:04:38;19.40;99.90
11497;DHT22;5805;51.542;7.230;2023-04-21T13:07:04;19.70;98.20
11497;DHT22;5805;51.542;7.230;2023-04-21T13:09:30;19.80;98.20
11497;DHT22;5805;51.542;7.230;2023-04-21T13:11:55;19.80;99.20
11497;DHT22;5805;51.542;7.230;2023-04-21T13:14:21;19.80;98.50
11497;DHT22;5805;51.542;7.230;2023-04-21T13:16:48;19.80;98.50
11497;DHT22;5805;51.542;7.230;2023-04-21T13:19:14;19.80;97.40
11497;DHT22;5805;51.542;7.230;2023-04-21T13:21:40;19.70;97.20
11497;DHT22;5805;51.542;7.230;2023-04-21T13:24:06;19.50;97.50
11497;DHT22;5805;51.542;7.230;2023-04-21T13:26:32;19.40;99.00
11497;DHT22;5805;51.542;7.230;2023-04-21T13:28:58;19.20;99.30
11497;DHT22;5805;51.542;7.230;2023-04-21T13:31:23;19.10;99.80
11497;DHT22;5805;51.542;7.230;2023-04-21T13:33:50;18.90;99.90
11497;DHT22;5805;51.542;7.230;2023-04-21T13:36:16;18.80;99.90
11497;DHT22;5805;51.542;7.230;2023-04-21T13:38:42;18.70;99.90
11497;DHT22;5805;51.542;7.230;2023-04-21T13:41:08;18.70;99.90
11497;DHT22;5805;51.542;7.230;2023-04-21T13:43:34;18.80;99.90
11497;DHT22;5805;51.542;7.230;2023-04-21T13:45:59;18.80;99.90
11497;DHT22;5805;51.542;7.230;2023-04-21T13:48:25;18.70;99.70
11497;DHT22;5805;51.542;7.230;2023-04-21T13:50:52;18.80;99.90
11497;DHT22;5805;51.542;7.230;2023-04-21T13:53:18;18.90;99.90
11497;DHT22;5805;51.542;7.230;2023-04-21T13:55:44;19.10;99.90
11497;DHT22;5805;51.542;7.230;2023-04-21T13:58:10;19.20;98.90
11497;DHT22;5805;51.542;7.230;2023-04-21T14:00:36;19.30;98.50
11497;DHT22;5805;51.542;7.230;2023-04-21T14:03:01;19.40;98.50
11497;DHT22;5805;51.542;7.230;2023-04-21T14:05:27;19.50;97.80
11497;DHT22;5805;51.542;7.230;2023-04-21T14:07:54;19.60;97.30
11497;DHT22;5805;51.542;7.230;2023-04-21T14:10:20;19.70;98.00
11497;DHT22;5805;51.542;7.230;2023-04-21T14:12:46;19.80;97.30
11497;DHT22;5805;51.542;7.230;2023-04-21T14:15:20;19.90;97.00
11497;DHT22;5805;51.542;7.230;2023-04-21T14:17:45;20.00;96.50
11497;DHT22;5805;51.542;7.230;2023-04-21T14:20:11;20.10;96.40
11497;DHT22;5805;51.542;7.230;2023-04-21T14:22:37;20.00;95.20
11497;DHT22;5805;51.542;7.230;2023-04-21T14:25:03;20.00;94.90
11497;DHT22;5805;51.542;7.230;2023-04-21T14:27:29;19.90;95.60
11497;DHT22;5805;51.542;7.230;2023-04-21T14:29:54;19.90;95.50
11497;DHT22;5805;51.542;7.230;2023-04-21T14:32:21;19.90;95.80
11497;DHT22;5805;51.542;7.230;2023-04-21T14:34:47;19.90;95.80
11497;DHT22;5805;51.542;7.230;2023-04-21T14:37:13;19.90;96.10
11497;DHT22;5805;51.542;7.230;2023-04-21T14:39:39;19.80;95.00
11497;DHT22;5805;51.542;7.230;2023-04-21T14:42:04;19.70;96.20
11497;DHT22;5805;51.542;7.230;2023-04-21T14:44:30;19.80;95.90
11497;DHT22;5805;51.542;7.230;2023-04-21T14:46:56;19.90;95.60
11497;DHT22;5805;51.542;7.230;2023-04-21T14:49:23;19.90;94.40
11497;DHT22;5805;51.542;7.230;2023-04-21T14:51:49;20.10;94.50
11497;DHT22;5805;51.542;7.230;2023-04-21T14:54:14;20.10;94.10
11497;DHT22;5805;51.542;7.230;2023-04-21T14:56:40;20.30;93.60
11497;DHT22;5805;51.542;7.230;2023-04-21T14:59:06;20.40;93.20
11497;DHT22;5805;51.542;7.230;2023-04-21T15:01:31;20.50;92.70
11497;DHT22;5805;51.542;7.230;2023-04-21T15:03:57;20.60;91.10
11497;DHT22;5805;51.542;7.230;2023-04-21T15:06:24;20.60;91.40
11497;DHT22;5805;51.542;7.230;2023-04-21T15:08:50;20.40;90.00
11497;DHT22;5805;51.542;7.230;2023-04-21T15:11:16;20.40;91.50
11497;DHT22;5805;51.542;7.230;2023-04-21T15:13:42;20.20;91.40
11497;DHT22;5805;51.542;7.230;2023-04-21T15:16:08;20.10;92.40
11497;DHT22;5805;51.542;7.230;2023-04-21T15:18:33;19.80;92.90
11497;DHT22;5805;51.542;7.230;2023-04-21T15:20:59;19.80;94.70
11497;DHT22;5805;51.542;7.230;2023-04-21T15:23:26;19.80;93.80
11497;DHT22;5805;51.542;7.230;2023-04-21T15:25:52;19.70;94.10
11497;DHT22;5805;51.542;7.230;2023-04-21T15:28:18;19.80;94.20
11497;DHT22;5805;51.542;7.230;2023-04-21T15:30:43;19.60;94.10
11497;DHT22;5805;51.542;7.230;2023-04-21T15:33:09;19.60;94.30
11497;DHT22;5805;51.542;7.230;2023-04-21T15:35:35;19.50;95.10
11497;DHT22;5805;51.542;7.230;2023-04-21T15:38:00;19.50;94.90
11497;DHT22;5805;51.542;7.230;2023-04-21T15:40:28;19.40;95.40
11497;DHT22;5805;51.542;7.230;2023-04-21T15:42:53;19.40;95.70